地図

経路データ

SID SEASON NUMBER BASIN SUBBASIN NAME ISO_TIME NATURE LAT LON WMO_WIND WMO_PRES WMO_AGENCY TRACK_TYPE DIST2LAND LANDFALL IFLAG USA_AGENCY USA_ATCF_ID USA_LAT USA_LON USA_RECORD USA_STATUS USA_WIND USA_PRES USA_SSHS USA_R34_NE USA_R34_SE USA_R34_SW USA_R34_NW USA_R50_NE USA_R50_SE USA_R50_SW USA_R50_NW USA_R64_NE USA_R64_SE USA_R64_SW USA_R64_NW USA_POCI USA_ROCI USA_RMW USA_EYE TOKYO_LAT TOKYO_LON TOKYO_GRADE TOKYO_WIND TOKYO_PRES TOKYO_R50_DIR TOKYO_R50_LONG TOKYO_R50_SHORT TOKYO_R30_DIR TOKYO_R30_LONG TOKYO_R30_SHORT TOKYO_LAND CMA_LAT CMA_LON CMA_CAT CMA_WIND CMA_PRES HKO_LAT HKO_LON HKO_CAT HKO_WIND HKO_PRES NEWDELHI_LAT NEWDELHI_LON NEWDELHI_GRADE NEWDELHI_WIND NEWDELHI_PRES NEWDELHI_CI NEWDELHI_DP NEWDELHI_POCI REUNION_LAT REUNION_LON REUNION_TYPE REUNION_WIND REUNION_PRES REUNION_TNUM REUNION_CI REUNION_RMW REUNION_R34_NE REUNION_R34_SE REUNION_R34_SW REUNION_R34_NW REUNION_R50_NE REUNION_R50_SE REUNION_R50_SW REUNION_R50_NW REUNION_R64_NE REUNION_R64_SE REUNION_R64_SW REUNION_R64_NW BOM_LAT BOM_LON BOM_TYPE BOM_WIND BOM_PRES BOM_TNUM BOM_CI BOM_RMW BOM_R34_NE BOM_R34_SE BOM_R34_SW BOM_R34_NW BOM_R50_NE BOM_R50_SE BOM_R50_SW BOM_R50_NW BOM_R64_NE BOM_R64_SE BOM_R64_SW BOM_R64_NW BOM_ROCI BOM_POCI BOM_EYE BOM_POS_METHOD BOM_PRES_METHOD NADI_LAT NADI_LON NADI_CAT NADI_WIND NADI_PRES WELLINGTON_LAT WELLINGTON_LON WELLINGTON_WIND WELLINGTON_PRES DS824_LAT DS824_LON DS824_STAGE DS824_WIND DS824_PRES TD9636_LAT TD9636_LON TD9636_STAGE TD9636_WIND TD9636_PRES TD9635_LAT TD9635_LON TD9635_WIND TD9635_PRES TD9635_ROCI NEUMANN_LAT NEUMANN_LON NEUMANN_CLASS NEUMANN_WIND NEUMANN_PRES MLC_LAT MLC_LON MLC_CLASS MLC_WIND MLC_PRES USA_GUST BOM_GUST BOM_GUST_PER REUNION_GUST REUNION_GUST_PER USA_SEAHGT USA_SEARAD_NE USA_SEARAD_SE USA_SEARAD_SW USA_SEARAD_NW STORM_SPEED STORM_DIR
1951034S11062 1951 9 SI MM NOT_NAMED 1951-02-03 06:00:00 TS -11.0000 62.0000 main 1117 1100 O________OO___ jtwc_sh SH151951 -11.0000 62.0000 -1 -11.0000 62.0000 TC 25 -11.0000 62.0000 7 8 263
1951034S11062 1951 9 SI MM NOT_NAMED 1951-02-03 09:00:00 TS -11.0492 61.6016 main 1100 1074 P________PP___ SH151951 -11.0401 61.6125 -1 -11.0401 61.6125 TC 25 -11.0676 61.5797 7 8 262
1951034S11062 1951 9 SI MM NOT_NAMED 1951-02-03 12:00:00 TS -11.1126 61.1858 main 1074 1049 O________OP___ jtwc_sh SH151951 -11.1000 61.2000 -1 -11.1000 61.2000 TC 25 -11.1379 61.1575 7 9 260
1951034S11062 1951 9 SI MM NOT_NAMED 1951-02-03 15:00:00 TS -11.1997 60.7439 main 1046 1023 P________PP___ SH151951 -11.1925 60.7500 -1 -11.1925 60.7500 TC 30 -11.2143 60.7315 7 9 258
1951034S11062 1951 9 SI MM NOT_NAMED 1951-02-03 18:00:00 TS -11.3000 60.3000 main 1023 1001 O________OO___ jtwc_sh SH151951 -11.3000 60.3000 -1 -11.3000 60.3000 TC 35 -11.3000 60.3000 2 9 257
1951034S11062 1951 9 SI MM NOT_NAMED 1951-02-03 21:00:00 TS -11.3989 59.8876 main 1001 981 P________PP___ SH151951 -11.3999 59.9000 -1 -11.3999 59.9000 TC 35 -11.3968 59.8629 2 8 256
1951034S11062 1951 9 SI MM NOT_NAMED 1951-02-04 00:00:00 TS -11.5000 59.4759 main 981 963 O________OP___ jtwc_sh SH151951 -11.5000 59.5000 -1 -11.5000 59.5000 TC 35 -11.4999 59.4276 2 9 256
1951034S11062 1951 9 SI MM NOT_NAMED 1951-02-04 03:00:00 TS -11.6060 59.0295 main 961 945 P________PP___ SH151951 -11.6075 59.0425 -1 -11.6075 59.0425 TC 35 -11.6031 59.0035 2 9 257
1951034S11062 1951 9 SI MM NOT_NAMED 1951-02-04 06:00:00 TS -11.7000 58.6000 main 945 906 O________OO___ jtwc_sh SH151951 -11.7000 58.6000 -1 -11.7000 58.6000 TC 35 -11.7000 58.6000 2 8 259
1951034S11062 1951 9 SI MM NOT_NAMED 1951-02-04 09:00:00 TS -11.7606 58.2300 main 906 875 P________PP___ SH151951 -11.7499 58.2349 -1 -11.7499 58.2349 TC 35 -11.7820 58.2202 2 7 260
1951034S11062 1951 9 SI MM NOT_NAMED 1951-02-04 12:00:00 TS -11.8191 57.8875 main 875 840 O________OP___ jtwc_sh SH151951 -11.8000 57.9000 -1 -11.8000 57.9000 TC 35 -11.8573 57.8624 2 7 258
1951034S11062 1951 9 SI MM NOT_NAMED 1951-02-04 15:00:00 TS -11.9096 57.5411 main 830 795 P________PP___ SH151951 -11.9000 57.5500 -1 -11.9000 57.5500 TC 35 -11.9289 57.5234 2 7 255
1951034S11062 1951 9 SI MM NOT_NAMED 1951-02-04 18:00:00 TS -12.0000 57.2000 main 795 761 O________OO___ jtwc_sh SH151951 -12.0000 57.2000 -1 -12.0000 57.2000 TC 35 -12.0000 57.2000 2 7 258
1951034S11062 1951 9 SI MM NOT_NAMED 1951-02-04 21:00:00 TS -12.0583 56.8424 main 750 719 P________PP___ SH151951 -12.0500 56.8349 -1 -12.0500 56.8349 TC 35 -12.0750 56.8572 2 7 260
1951034S11062 1951 9 SI MM NOT_NAMED 1951-02-05 00:00:00 TS -12.1167 56.5108 main 719 685 O________OP___ jtwc_sh SH151951 -12.1000 56.5000 -1 -12.1000 56.5000 TC 35 -12.1500 56.5325 2 6 256
1951034S11062 1951 9 SI MM NOT_NAMED 1951-02-05 03:00:00 TS -12.2083 56.2272 main 685 661 P________PP___ SH151951 -12.2000 56.2200 -1 -12.2000 56.2200 TC 35 -12.2250 56.2416 2 5 250
1951034S11062 1951 9 SI MM NOT_NAMED 1951-02-05 06:00:00 TS -12.3000 56.0000 main 661 637 O________OO___ jtwc_sh SH151951 -12.3000 56.0000 -1 -12.3000 56.0000 TC 35 -12.3000 56.0000 2 4 249
1951034S11062 1951 9 SI MM NOT_NAMED 1951-02-05 09:00:00 TS -12.3583 55.8252 main 637 626 P________PP___ SH151951 -12.3500 55.8275 -1 -12.3500 55.8275 TC 35 -12.3748 55.8206 2 3 249
1951034S11062 1951 9 SI MM NOT_NAMED 1951-02-05 12:00:00 TS -12.4166 55.6966 main 626 613 O________OP___ jtwc_sh SH151951 -12.4000 55.7000 -1 -12.4000 55.7000 TC 35 -12.4498 55.6899 2 3 236
1951034S11062 1951 9 SI MM NOT_NAMED 1951-02-05 15:00:00 TS -12.5083 55.5914 main 613 600 P________PP___ SH151951 -12.5000 55.5925 -1 -12.5000 55.5925 TC 35 -12.5249 55.5893 2 3 226
1951034S11062 1951 9 SI MM NOT_NAMED 1951-02-05 18:00:00 TS -12.6000 55.5000 main 600 587 O________OO___ jtwc_sh SH151951 -12.6000 55.5000 -1 -12.6000 55.5000 TC 35 -12.6000 55.5000 2 2 232
1951034S11062 1951 9 SI MM NOT_NAMED 1951-02-05 21:00:00 TS -12.6583 55.3949 main 587 576 P________PP___ SH151951 -12.6500 55.4000 -1 -12.6500 55.4000 TC 35 -12.6750 55.3847 2 2 240
1951034S11062 1951 9 SI MM NOT_NAMED 1951-02-06 00:00:00 TS -12.7167 55.2925 main 576 563 O________OP___ jtwc_sh SH151951 -12.7000 55.3000 -1 -12.7000 55.3000 TC 35 -12.7500 55.2775 2 3 233
1951034S11062 1951 9 SI MM NOT_NAMED 1951-02-06 03:00:00 TS -12.8083 55.1889 main 563 550 P________PP___ SH151951 -12.8000 55.1925 -1 -12.8000 55.1925 TC 35 -12.8250 55.1816 2 3 226
1951034S11062 1951 9 SI MM NOT_NAMED 1951-02-06 06:00:00 TS -12.9000 55.1000 main 550 537 O________OO___ jtwc_sh SH151951 -12.9000 55.1000 -1 -12.9000 55.1000 TC 35 -12.9000 55.1000 2 2 224
1951034S11062 1951 9 SI MM NOT_NAMED 1951-02-06 09:00:00 TS -12.9570 55.0402 main 537 537 P________PP___ SH151951 -12.9500 55.0425 -1 -12.9500 55.0425 TC 35 -12.9709 55.0356 2 2 222
1951034S11062 1951 9 SI MM NOT_NAMED 1951-02-06 12:00:00 TS -13.0142 54.9950 main 537 525 O________OP___ jtwc_sh SH151951 -13.0000 55.0000 -1 -13.0000 55.0000 TC 35 -13.0425 54.9850 2 2 211
1951034S11062 1951 9 SI MM NOT_NAMED 1951-02-06 15:00:00 TS -13.1009 54.9473 main 525 523 P________PP___ SH151951 -13.0925 54.9500 -1 -13.0925 54.9500 TC 35 -13.1178 54.9418 2 2 205
1951034S11062 1951 9 SI MM NOT_NAMED 1951-02-06 18:00:00 TS -13.2000 54.9000 main 523 519 O________OO___ jtwc_sh SH151951 -13.2000 54.9000 -1 -13.2000 54.9000 TC 35 -13.2000 54.9000 2 2 207
1951034S11062 1951 9 SI MM NOT_NAMED 1951-02-06 21:00:00 TS -13.2971 54.8515 main 519 505 P________PP___ SH151951 -13.3000 54.8500 -1 -13.3000 54.8500 TC 35 -13.2913 54.8544 2 2 207
1951034S11062 1951 9 SI MM NOT_NAMED 1951-02-07 00:00:00 TS -13.3967 54.8017 main 505 500 O________OP___ jtwc_sh SH151951 -13.4000 54.8000 -1 -13.4000 54.8000 TC 35 -13.3900 54.8051 2 2 206
1951034S11062 1951 9 SI MM NOT_NAMED 1951-02-07 03:00:00 TS -13.4979 54.7511 main 500 486 P________PP___ SH151951 -13.5000 54.7500 -1 -13.5000 54.7500 TC 35 -13.4938 54.7532 2 2 205
1951034S11062 1951 9 SI MM NOT_NAMED 1951-02-07 06:00:00 TS -13.6000 54.7000 main 486 O________OO___ jtwc_sh SH151951 -13.6000 54.7000 -1 -13.6000 54.7000 TC 35 -13.6000 54.7000 2 2 211

IBTrACS Databaseについて

本データベースは、米国NOAAが公開する1842年以降の世界の熱帯低気圧のベストトラックデータアーカイブInternational Best Track Archive for Climate Stewardship (IBTrACS)を、ウェブで閲覧しやすい形式に変換したものです。

最終更新日:2021-10-19